createdAt,value
2019-03-15T00:00:18.407Z,4.27
2019-03-15T00:02:51.802Z,5.40
2019-03-15T00:05:25.283Z,5.67
2019-03-15T00:07:56.797Z,4.30
2019-03-15T00:10:29.473Z,4.43
2019-03-15T00:13:00.999Z,3.87
2019-03-15T00:15:32.633Z,5.67
2019-03-15T00:18:04.136Z,6.17
2019-03-15T00:20:36.308Z,6.33
2019-03-15T00:23:07.814Z,3.57
2019-03-15T00:25:39.317Z,3.97
2019-03-15T00:28:10.819Z,5.10
2019-03-15T00:30:42.712Z,5.53
2019-03-15T00:33:14.573Z,6.73
2019-03-15T00:35:46.793Z,6.20
2019-03-15T00:38:18.307Z,5.33
2019-03-15T00:40:49.821Z,4.50
2019-03-15T00:43:21.319Z,5.03
2019-03-15T00:45:52.911Z,5.83
2019-03-15T00:48:24.663Z,4.77
2019-03-15T00:50:56.322Z,6.03
2019-03-15T00:53:27.901Z,6.87
2019-03-15T00:55:59.492Z,6.43
2019-03-15T00:58:30.996Z,6.27
2019-03-15T01:01:02.526Z,5.70
2019-03-15T01:03:34.104Z,7.83
2019-03-15T01:06:05.694Z,7.20
2019-03-15T01:08:37.350Z,6.63
2019-03-15T01:11:09.203Z,6.57
2019-03-15T01:13:40.859Z,6.73
2019-03-15T01:16:12.380Z,4.93
2019-03-15T01:18:44.650Z,6.40
2019-03-15T01:21:16.314Z,5.73
2019-03-15T01:23:47.825Z,5.43
2019-03-15T01:26:19.507Z,6.13
2019-03-15T01:28:51.030Z,10.50
2019-03-15T01:31:22.773Z,5.83
2019-03-15T01:33:54.295Z,5.77
2019-03-15T01:36:25.806Z,7.37
2019-03-15T01:38:57.448Z,7.00
2019-03-15T01:41:28.966Z,7.17
2019-03-15T01:44:00.557Z,5.37
2019-03-15T01:46:33.745Z,6.40
2019-03-15T01:49:05.503Z,6.00
2019-03-15T01:51:37.131Z,6.10
2019-03-15T01:54:08.791Z,6.63
2019-03-15T01:56:40.371Z,7.57
2019-03-15T01:59:12.991Z,5.57
2019-03-15T02:01:44.602Z,7.07
2019-03-15T02:04:16.500Z,6.53
2019-03-15T02:06:49.264Z,7.23
2019-03-15T02:09:20.795Z,6.77
2019-03-15T02:11:52.293Z,8.97
2019-03-15T02:14:24.456Z,7.27
2019-03-15T02:16:55.956Z,6.53
2019-03-15T02:19:27.576Z,7.20
2019-03-15T02:21:59.080Z,7.93
2019-03-15T02:24:30.627Z,5.53
2019-03-15T02:27:02.160Z,6.70
2019-03-15T02:29:33.904Z,4.77
2019-03-15T02:32:05.433Z,6.87
2019-03-15T02:34:37.074Z,5.33
2019-03-15T02:37:10.265Z,7.50
2019-03-15T02:39:41.915Z,4.73
2019-03-15T02:42:13.501Z,4.77
2019-03-15T02:44:46.102Z,4.83
2019-03-15T02:47:19.443Z,7.17
2019-03-15T02:49:51.362Z,4.83
2019-03-15T02:52:23.002Z,7.23
2019-03-15T02:54:54.779Z,4.53
2019-03-15T02:57:26.270Z,5.67
2019-03-15T02:59:58.405Z,4.17
2019-03-15T03:02:29.990Z,6.87
2019-03-15T03:05:01.517Z,4.27
2019-03-15T03:07:33.118Z,4.30
2019-03-15T03:10:05.524Z,4.63
2019-03-15T03:12:37.374Z,5.57
2019-03-15T03:15:09.641Z,4.13
2019-03-15T03:17:41.683Z,4.10
2019-03-15T03:20:13.289Z,4.40
2019-03-15T03:22:45.565Z,5.63
2019-03-15T03:25:17.435Z,6.07
2019-03-15T03:27:49.227Z,4.53
2019-03-15T03:30:21.327Z,3.57
2019-03-15T03:32:52.906Z,3.43
2019-03-15T03:35:25.029Z,4.00
2019-03-15T03:37:56.814Z,4.33
2019-03-15T03:40:29.121Z,4.83
2019-03-15T03:43:01.165Z,4.83
2019-03-15T03:45:32.835Z,3.23
2019-03-15T03:48:04.481Z,3.57
2019-03-15T03:50:36.054Z,2.60
2019-03-15T03:53:07.574Z,4.63
2019-03-15T03:55:39.268Z,3.17
2019-03-15T03:58:10.848Z,5.60
2019-03-15T04:00:42.874Z,3.40
2019-03-15T04:03:14.390Z,3.60
2019-03-15T04:05:46.033Z,4.23
2019-03-15T04:08:18.918Z,4.07
2019-03-15T04:10:50.981Z,3.43
2019-03-15T04:13:22.479Z,3.17
2019-03-15T04:15:54.482Z,4.67
2019-03-15T04:18:26.198Z,3.60
2019-03-15T04:20:57.787Z,5.27
2019-03-15T04:23:29.312Z,5.57
2019-03-15T04:26:02.453Z,3.03
2019-03-15T04:28:33.980Z,3.70
2019-03-15T04:31:05.945Z,3.07
2019-03-15T04:33:37.470Z,4.83
2019-03-15T04:36:09.002Z,6.90
2019-03-15T04:38:40.574Z,8.07
2019-03-15T04:41:12.096Z,5.20
2019-03-15T04:43:43.650Z,3.43
2019-03-15T04:46:15.786Z,4.63
2019-03-15T04:48:47.446Z,3.27
2019-03-15T04:51:19.052Z,4.63
2019-03-15T04:53:50.692Z,6.53
2019-03-15T04:56:22.369Z,2.93
2019-03-15T04:58:54.810Z,4.40
2019-03-15T05:01:26.315Z,7.17
2019-03-15T05:03:58.392Z,5.50
2019-03-15T05:06:30.307Z,3.77
2019-03-15T05:09:01.824Z,8.73
2019-03-15T05:11:33.384Z,4.03
2019-03-15T05:14:05.261Z,7.20
2019-03-15T05:16:36.785Z,5.27
2019-03-15T05:19:08.312Z,9.53
2019-03-15T05:21:39.843Z,4.07
2019-03-15T05:24:12.250Z,6.07
2019-03-15T05:26:45.423Z,3.13
2019-03-15T05:29:18.045Z,7.40
2019-03-15T05:31:49.580Z,6.07
2019-03-15T05:34:21.116Z,7.03
2019-03-15T05:36:52.739Z,5.33
2019-03-15T05:39:24.281Z,4.33
2019-03-15T05:41:55.793Z,8.03
2019-03-15T05:44:27.317Z,6.23
2019-03-15T05:46:58.832Z,6.13
2019-03-15T05:49:30.378Z,7.73
2019-03-15T05:52:01.995Z,6.10
2019-03-15T05:54:33.513Z,3.93
2019-03-15T05:57:05.097Z,5.77
2019-03-15T05:59:38.258Z,4.23
2019-03-15T06:02:10.532Z,5.57
2019-03-15T06:04:42.058Z,5.57
2019-03-15T06:07:13.706Z,7.43
2019-03-15T06:09:48.015Z,5.83
2019-03-15T06:12:19.729Z,5.03
2019-03-15T06:14:51.399Z,3.47
2019-03-15T06:17:23.608Z,6.00
2019-03-15T06:19:55.202Z,5.00
2019-03-15T06:22:27.982Z,3.10
2019-03-15T06:24:59.580Z,8.47
2019-03-15T06:27:31.454Z,4.67
2019-03-15T06:30:02.982Z,5.83
2019-03-15T06:32:34.592Z,5.87
2019-03-15T06:35:06.542Z,5.07
2019-03-15T06:37:38.065Z,5.27
2019-03-15T06:40:13.491Z,4.70
2019-03-15T06:42:44.724Z,4.90
2019-03-15T06:45:16.291Z,3.57
2019-03-15T06:47:47.837Z,6.10
2019-03-15T06:50:20.576Z,3.23
2019-03-15T06:52:52.371Z,4.47
2019-03-15T06:55:25.579Z,4.47
2019-03-15T06:57:57.480Z,2.13
2019-03-15T07:00:29.075Z,4.83
2019-03-15T07:03:00.618Z,3.27
2019-03-15T07:05:32.257Z,3.30
2019-03-15T07:08:03.784Z,4.13
2019-03-15T07:10:35.344Z,7.83
2019-03-15T07:13:07.983Z,3.73
2019-03-15T07:15:39.570Z,4.03
2019-03-15T07:18:11.270Z,4.53
2019-03-15T07:20:43.070Z,3.70
2019-03-15T07:23:19.384Z,6.93
2019-03-15T07:25:51.049Z,3.37
2019-03-15T07:28:22.739Z,3.40
2019-03-15T07:30:54.454Z,2.30
2019-03-15T07:33:26.436Z,3.27
2019-03-15T07:35:58.051Z,6.70
2019-03-15T07:38:29.662Z,3.87
2019-03-15T07:41:04.132Z,8.37
2019-03-15T07:43:36.813Z,6.63
2019-03-15T07:46:08.543Z,5.53
2019-03-15T07:48:40.152Z,4.87
2019-03-15T07:51:11.900Z,3.83
2019-03-15T07:53:44.528Z,6.63
2019-03-15T07:56:16.109Z,3.63
2019-03-15T07:58:47.780Z,3.90
2019-03-15T08:01:19.270Z,4.13
2019-03-15T08:03:53.806Z,3.00
2019-03-15T08:06:34.865Z,3.33
2019-03-15T08:08:58.990Z,8.57
2019-03-15T08:11:30.837Z,5.73
2019-03-15T08:14:02.458Z,3.53
2019-03-15T08:16:34.604Z,9.27
2019-03-15T08:19:07.860Z,3.70
2019-03-15T08:21:39.449Z,2.77
2019-03-15T08:24:11.359Z,2.77
2019-03-15T08:26:44.180Z,3.97
2019-03-15T08:29:15.699Z,5.50
2019-03-15T08:31:47.330Z,3.27
2019-03-15T08:34:19.157Z,2.70
2019-03-15T08:36:51.226Z,4.23
2019-03-15T08:39:24.380Z,2.63
2019-03-15T08:41:56.203Z,2.80
2019-03-15T08:44:30.740Z,2.83
2019-03-15T08:47:02.385Z,4.17
2019-03-15T08:49:35.172Z,1.73
2019-03-15T08:52:06.881Z,3.90
2019-03-15T08:54:39.441Z,2.77
2019-03-15T08:57:11.158Z,3.97
2019-03-15T08:59:56.607Z,1.67
2019-03-15T09:02:17.417Z,3.87
2019-03-15T09:04:50.493Z,4.03
2019-03-15T09:07:22.322Z,6.17
2019-03-15T09:09:53.807Z,3.00
2019-03-15T09:12:25.473Z,2.97
2019-03-15T09:14:57.315Z,3.10
2019-03-15T09:17:28.928Z,4.47
2019-03-15T09:20:01.085Z,2.47
2019-03-15T09:22:32.599Z,4.87
2019-03-15T09:25:18.048Z,3.40
2019-03-15T09:27:38.232Z,5.50
2019-03-15T09:30:23.294Z,3.90
2019-03-15T09:32:46.368Z,3.47
2019-03-15T09:35:18.141Z,2.83
2019-03-15T09:37:49.858Z,2.77
2019-03-15T09:40:21.444Z,3.37
2019-03-15T09:42:52.973Z,3.37
2019-03-15T09:45:26.118Z,2.90
2019-03-15T09:47:57.661Z,1.83
2019-03-15T09:50:36.146Z,1.73
2019-03-15T09:53:05.825Z,4.20
2019-03-15T09:55:37.655Z,2.37
2019-03-15T09:58:09.720Z,6.03
2019-03-15T10:00:41.407Z,3.13
2019-03-15T10:03:22.167Z,4.63
2019-03-15T10:05:47.804Z,1.07
2019-03-15T10:08:23.175Z,1.77
2019-03-15T10:10:52.874Z,3.53
2019-03-15T10:13:24.686Z,3.13
2019-03-15T10:15:56.399Z,3.73
2019-03-15T10:18:28.051Z,1.63
2019-03-15T10:20:59.674Z,3.63
2019-03-15T10:23:31.341Z,2.33
2019-03-15T10:26:02.960Z,2.57
2019-03-15T10:28:35.890Z,3.00
2019-03-15T10:31:07.564Z,2.80
2019-03-15T10:33:49.878Z,1.67
2019-03-15T10:36:12.386Z,2.47
2019-03-15T10:38:43.915Z,1.93
2019-03-15T10:41:15.496Z,1.17
2019-03-15T10:43:47.156Z,0.90
2019-03-15T10:46:18.919Z,1.25
2019-03-15T10:48:50.539Z,1.67
2019-03-15T10:51:23.556Z,2.10
2019-03-15T10:53:55.181Z,1.50
2019-03-15T10:56:26.691Z,1.33
2019-03-15T10:58:58.261Z,2.20
2019-03-15T11:01:29.903Z,1.33
2019-03-15T11:04:01.499Z,1.77
2019-03-15T11:06:34.111Z,1.60
2019-03-15T11:09:07.409Z,4.60
2019-03-15T11:11:39.158Z,2.23
2019-03-15T11:14:10.679Z,2.13
2019-03-15T11:16:42.212Z,2.00
2019-03-15T11:19:15.677Z,1.13
2019-03-15T11:21:47.111Z,1.40
2019-03-15T11:24:18.652Z,2.17
2019-03-15T11:26:50.636Z,0.80
2019-03-15T11:29:22.260Z,1.37
2019-03-15T11:31:54.052Z,0.80
2019-03-15T11:34:25.851Z,1.80
2019-03-15T11:36:58.749Z,1.90
2019-03-15T11:39:32.752Z,0.60
2019-03-15T11:42:04.613Z,1.90
2019-03-15T11:44:36.546Z,1.70
2019-03-15T11:47:09.250Z,1.97
2019-03-15T11:49:41.029Z,0.50
2019-03-15T11:52:13.328Z,2.10
2019-03-15T11:54:45.340Z,1.60
2019-03-15T11:57:18.959Z,0.67
2019-03-15T11:59:50.620Z,2.07
2019-03-15T12:02:22.272Z,1.67
2019-03-15T12:04:54.142Z,1.60
2019-03-15T12:07:26.434Z,1.50
2019-03-15T12:10:19.092Z,5.70
2019-03-15T12:12:50.973Z,2.72
2019-03-15T12:15:22.781Z,1.50
2019-03-15T12:17:54.538Z,2.50
2019-03-15T12:20:26.128Z,1.98
2019-03-15T12:22:59.341Z,1.93
2019-03-15T12:25:31.527Z,1.75
2019-03-15T12:28:03.276Z,4.33
2019-03-15T12:30:35.449Z,0.93
2019-03-15T12:33:07.219Z,2.73
2019-03-15T12:35:39.063Z,3.70
2019-03-15T12:38:10.644Z,3.27
2019-03-15T12:40:42.178Z,2.55
2019-03-15T12:43:15.146Z,3.30
2019-03-15T12:45:56.877Z,3.33
2019-03-15T12:48:26.573Z,4.25
2019-03-15T12:50:58.172Z,2.27
2019-03-15T12:53:31.459Z,4.73
2019-03-15T12:56:02.989Z,4.33
2019-03-15T12:58:34.523Z,4.67
2019-03-15T13:01:06.330Z,4.13
2019-03-15T13:03:40.721Z,2.52
2019-03-15T13:06:12.252Z,2.30
2019-03-15T13:08:43.852Z,2.03
2019-03-15T13:11:15.574Z,6.93
2019-03-15T13:13:51.045Z,4.42
2019-03-15T13:16:23.700Z,6.10
2019-03-15T13:18:55.538Z,3.57
2019-03-15T13:21:27.146Z,4.07
2019-03-15T13:23:58.658Z,5.33
2019-03-15T13:26:30.221Z,6.00
2019-03-15T13:29:01.934Z,4.57
2019-03-15T13:31:33.459Z,5.85
2019-03-15T13:34:08.605Z,4.03
2019-03-15T13:36:41.654Z,8.23
2019-03-15T13:39:13.247Z,5.30
2019-03-15T13:41:44.983Z,4.77
2019-03-15T13:44:16.599Z,6.07
2019-03-15T13:46:48.253Z,2.70
2019-03-15T13:49:21.632Z,7.25
2019-03-15T13:51:54.113Z,4.60
2019-03-15T13:54:25.780Z,5.03
2019-03-15T13:56:57.292Z,5.67
2019-03-15T13:59:28.884Z,6.23
2019-03-15T14:02:00.474Z,4.20
2019-03-15T14:04:32.223Z,6.17
2019-03-15T14:07:03.744Z,5.37
2019-03-15T14:09:35.546Z,7.45
2019-03-15T14:12:07.132Z,4.00
2019-03-15T14:14:38.734Z,6.92
2019-03-15T14:17:10.278Z,7.28
2019-03-15T14:19:41.871Z,3.85
2019-03-15T14:22:13.405Z,5.20
2019-03-15T14:24:45.015Z,9.65
2019-03-15T14:27:17.197Z,9.63
2019-03-15T14:29:48.775Z,7.47
2019-03-15T14:32:22.416Z,6.60
2019-03-15T14:34:54.109Z,8.40
2019-03-15T14:37:25.899Z,8.90
2019-03-15T14:39:59.232Z,5.27
2019-03-15T14:42:31.068Z,8.67
2019-03-15T14:45:03.051Z,6.60
2019-03-15T14:47:34.702Z,11.80
2019-03-15T14:50:14.010Z,6.83
2019-03-15T14:52:47.958Z,6.40
2019-03-15T14:55:19.493Z,6.33
2019-03-15T14:57:53.619Z,7.77
2019-03-15T15:00:25.401Z,9.73
2019-03-15T15:02:59.074Z,9.53
2019-03-15T15:05:30.606Z,12.03
2019-03-15T15:08:02.122Z,10.03
2019-03-15T15:10:33.723Z,8.17
2019-03-15T15:13:05.405Z,5.93
2019-03-15T15:15:36.925Z,9.73
2019-03-15T15:18:08.502Z,8.18
2019-03-15T15:20:40.040Z,9.83
2019-03-15T15:23:17.431Z,9.70
2019-03-15T15:25:49.128Z,7.83
2019-03-15T15:28:21.438Z,10.33
2019-03-15T15:30:53.689Z,6.70
2019-03-15T15:33:25.339Z,11.00
2019-03-15T15:35:56.852Z,10.57
2019-03-15T15:38:28.467Z,15.07
2019-03-15T15:41:00.040Z,15.40
2019-03-15T15:43:32.012Z,9.35
2019-03-15T15:46:06.060Z,10.72
2019-03-15T15:48:37.577Z,9.80
2019-03-15T15:51:09.096Z,10.17
2019-03-15T15:53:40.625Z,9.67
2019-03-15T15:56:12.218Z,9.70
2019-03-15T15:58:43.836Z,11.73
2019-03-15T16:01:15.434Z,10.48
2019-03-15T16:03:47.143Z,13.83
2019-03-15T16:06:18.755Z,12.03
2019-03-15T16:08:50.274Z,11.77
2019-03-15T16:11:23.144Z,17.45
2019-03-15T16:13:56.257Z,15.27
2019-03-15T16:16:27.849Z,14.83
2019-03-15T16:18:59.350Z,12.70
2019-03-15T16:21:31.096Z,9.27
2019-03-15T16:24:02.693Z,11.83
2019-03-15T16:26:34.404Z,14.40
2019-03-15T16:29:06.288Z,11.27
2019-03-15T16:31:37.968Z,15.13
2019-03-15T16:34:09.813Z,15.73
2019-03-15T16:36:41.460Z,15.23
2019-03-15T16:39:13.150Z,13.00
2019-03-15T16:41:44.796Z,12.73
2019-03-15T16:44:16.474Z,13.47
2019-03-15T16:46:48.133Z,14.03
2019-03-15T16:49:19.819Z,25.43
2019-03-15T16:51:51.436Z,22.47
2019-03-15T16:54:23.077Z,19.13
2019-03-15T16:56:56.248Z,14.00
2019-03-15T16:59:27.856Z,12.43
2019-03-15T17:01:59.561Z,15.30
2019-03-15T17:04:31.159Z,18.97
2019-03-15T17:07:02.786Z,19.57
2019-03-15T17:09:34.470Z,12.83
2019-03-15T17:12:06.070Z,15.07
2019-03-15T17:14:37.733Z,14.67
2019-03-15T17:17:09.407Z,20.90
2019-03-15T17:19:42.086Z,15.03
2019-03-15T17:22:15.519Z,14.53
2019-03-15T17:24:47.376Z,13.00
2019-03-15T17:27:20.994Z,15.03
2019-03-15T17:29:55.582Z,13.17
2019-03-15T17:32:27.187Z,18.73
2019-03-15T17:35:08.291Z,13.27
2019-03-15T17:37:40.374Z,13.77
2019-03-15T17:40:15.770Z,13.30
2019-03-15T17:42:47.369Z,13.83
2019-03-15T17:45:20.397Z,14.27
2019-03-15T17:47:52.385Z,13.23
2019-03-15T17:50:26.893Z,13.70
2019-03-15T17:53:00.194Z,11.23
2019-03-15T17:55:31.840Z,12.80
2019-03-15T17:58:03.595Z,14.10
2019-03-15T18:00:49.416Z,15.93
2019-03-15T18:03:22.055Z,13.97
2019-03-15T18:05:53.871Z,11.70
2019-03-15T18:08:25.487Z,9.93
2019-03-15T18:10:57.306Z,9.77
2019-03-15T18:13:28.915Z,8.77
2019-03-15T18:16:00.451Z,14.60
2019-03-15T18:18:32.065Z,13.93
2019-03-15T18:21:03.965Z,9.87
2019-03-15T18:23:35.547Z,9.87
2019-03-15T18:26:07.151Z,13.03
2019-03-15T18:28:38.664Z,5.87
2019-03-15T18:31:10.258Z,6.97
2019-03-15T18:33:41.862Z,7.53
2019-03-15T18:36:13.553Z,10.53
2019-03-15T18:38:45.267Z,7.23
2019-03-15T18:41:16.937Z,8.03
2019-03-15T18:43:48.607Z,5.70
2019-03-15T18:46:20.143Z,7.70
2019-03-15T18:48:51.732Z,9.73
2019-03-15T18:51:23.569Z,9.20
2019-03-15T18:53:55.155Z,8.03
2019-03-15T18:56:26.651Z,9.10
2019-03-15T18:58:58.538Z,7.67
2019-03-15T19:01:30.263Z,8.47
2019-03-15T19:04:01.995Z,9.00
2019-03-15T19:06:33.552Z,8.27
2019-03-15T19:09:07.699Z,9.77
2019-03-15T19:11:39.318Z,11.87
2019-03-15T19:14:10.967Z,9.10
2019-03-15T19:16:42.569Z,10.13
2019-03-15T19:19:14.252Z,11.00
2019-03-15T19:21:45.944Z,9.87
2019-03-15T19:24:17.536Z,12.50
2019-03-15T19:26:49.123Z,13.30
2019-03-15T19:29:20.870Z,11.10
2019-03-15T19:31:52.627Z,12.90
2019-03-15T19:34:24.238Z,11.80
2019-03-15T19:36:55.917Z,11.30
2019-03-15T19:39:27.454Z,8.50
2019-03-15T19:41:58.941Z,8.77
2019-03-15T19:44:30.713Z,11.47
2019-03-15T19:47:02.292Z,11.90
2019-03-15T19:49:33.822Z,10.23
2019-03-15T19:52:06.706Z,13.07
2019-03-15T19:54:38.375Z,15.17
2019-03-15T19:57:09.962Z,9.23
2019-03-15T19:59:41.900Z,10.30
2019-03-15T20:02:13.514Z,11.77
2019-03-15T20:04:45.027Z,11.50
2019-03-15T20:07:16.545Z,10.10
2019-03-15T20:09:48.374Z,8.00
2019-03-15T20:12:20.134Z,6.07
2019-03-15T20:14:51.839Z,6.13
2019-03-15T20:17:24.810Z,2.03
2019-03-15T20:19:56.401Z,1.97
2019-03-15T20:22:27.966Z,3.20
2019-03-15T20:24:59.550Z,2.20
2019-03-15T20:27:31.227Z,3.93
2019-03-15T20:30:05.553Z,5.50
2019-03-15T20:32:38.748Z,6.83
2019-03-15T20:35:10.802Z,5.87
2019-03-15T20:37:42.572Z,4.63
2019-03-15T20:40:15.016Z,7.67
2019-03-15T20:42:46.703Z,4.43
2019-03-15T20:45:27.392Z,4.93
2019-03-15T20:47:59.213Z,4.30
2019-03-15T20:50:31.507Z,5.63
2019-03-15T20:53:09.772Z,2.63
2019-03-15T20:55:37.137Z,5.97
2019-03-15T20:58:08.906Z,5.30
2019-03-15T21:00:40.433Z,5.57
2019-03-15T21:03:13.192Z,5.50
2019-03-15T21:05:44.722Z,3.73
2019-03-15T21:08:16.317Z,6.50
2019-03-15T21:10:51.238Z,3.20
2019-03-15T21:13:21.143Z,3.70
2019-03-15T21:15:53.014Z,3.67
2019-03-15T21:18:24.654Z,3.40
2019-03-15T21:20:56.353Z,2.87
2019-03-15T21:23:27.955Z,4.77
2019-03-15T21:25:59.475Z,5.53
2019-03-15T21:28:31.006Z,2.33
2019-03-15T21:31:02.593Z,3.13
2019-03-15T21:33:38.487Z,3.00
2019-03-15T21:36:10.153Z,3.83
2019-03-15T21:38:48.411Z,4.73
2019-03-15T21:41:18.394Z,3.77
2019-03-15T21:43:49.930Z,3.10
2019-03-15T21:46:21.783Z,6.00
2019-03-15T21:48:53.610Z,3.77
2019-03-15T21:51:25.295Z,7.93
2019-03-15T21:53:57.383Z,4.13
2019-03-15T21:56:28.972Z,5.10
2019-03-15T21:59:00.554Z,5.37
2019-03-15T22:01:32.751Z,3.77
2019-03-15T22:04:05.487Z,5.67
2019-03-15T22:06:36.983Z,4.57
2019-03-15T22:09:09.184Z,5.10
2019-03-15T22:11:40.750Z,6.33
2019-03-15T22:14:13.716Z,1.40
2019-03-15T22:16:45.284Z,2.97
2019-03-15T22:19:16.979Z,3.07
2019-03-15T22:21:48.534Z,5.93
2019-03-15T22:24:20.599Z,3.27
2019-03-15T22:26:52.233Z,5.97
2019-03-15T22:29:23.928Z,4.60
2019-03-15T22:31:55.658Z,5.93
2019-03-15T22:34:27.244Z,7.97
2019-03-15T22:36:58.744Z,6.70
2019-03-15T22:39:31.135Z,4.37
2019-03-15T22:42:02.732Z,4.87
2019-03-15T22:44:34.400Z,4.10
2019-03-15T22:47:06.355Z,5.00
2019-03-15T22:49:38.219Z,4.90
2019-03-15T22:52:11.573Z,5.50
2019-03-15T22:54:43.628Z,3.17
2019-03-15T22:57:15.137Z,6.80
2019-03-15T22:59:46.917Z,4.80
2019-03-15T23:02:19.142Z,3.70
2019-03-15T23:04:50.844Z,5.27
2019-03-15T23:07:24.706Z,5.43
2019-03-15T23:09:56.717Z,7.57
2019-03-15T23:12:28.467Z,7.73
2019-03-15T23:15:00.391Z,5.23
2019-03-15T23:17:35.057Z,6.07
2019-03-15T23:20:11.287Z,5.33
2019-03-15T23:22:43.191Z,5.57
2019-03-15T23:25:15.256Z,4.60
2019-03-15T23:27:48.329Z,2.23
2019-03-15T23:30:20.626Z,4.53
2019-03-15T23:32:52.307Z,6.10
2019-03-15T23:35:24.189Z,4.47
2019-03-15T23:37:56.618Z,9.53
2019-03-15T23:40:28.650Z,5.73
2019-03-15T23:43:00.463Z,5.40
2019-03-15T23:45:32.048Z,7.10
2019-03-15T23:48:03.746Z,6.07
2019-03-15T23:50:35.329Z,5.33
2019-03-15T23:53:08.413Z,6.83
2019-03-15T23:55:42.693Z,7.87
2019-03-15T23:58:15.972Z,5.87
